Time;durP1;ratioP1;P1;durP2;ratioP2;P2;SDS_P1;SDS_P2;PMS_P1;PMS_P2;Temp;Humidity;BMP_temperature;BMP_pressure;BME280_temperature;BME280_humidity;BME280_pressure;Samples;Min_cycle;Max_cycle;Signal;HPM_P1;HPM_P2
2023/07/10 00:02:25;;;;;;;6.18;3.10;;;;;;;21.80;100.00;100861.16;5124180;28;20042;-75
2023/07/10 00:04:55;;;;;;;8.55;3.42;;;;;;;21.76;100.00;100859.72;5127270;28;20580;-74
2023/07/10 00:07:25;;;;;;;4.80;2.65;;;;;;;21.74;100.00;100861.66;5123972;28;20126;-74
2023/07/10 00:09:55;;;;;;;5.07;2.63;;;;;;;21.59;100.00;100863.63;5124757;28;20039;-73
2023/07/10 00:12:26;;;;;;;5.47;3.17;;;;;;;21.67;100.00;100855.06;5113527;28;20081;-74
2023/07/10 00:14:56;;;;;;;8.45;3.05;;;;;;;21.95;100.00;100852.81;5128785;28;20266;-74
2023/07/10 00:17:26;;;;;;;6.03;3.03;;;;;;;21.82;100.00;100851.25;5127033;28;20374;-74
2023/07/10 00:19:57;;;;;;;6.47;3.10;;;;;;;21.84;100.00;100849.31;5115708;28;20046;-75
2023/07/10 00:22:27;;;;;;;7.38;2.70;;;;;;;21.82;100.00;100856.56;5124274;28;20347;-74
2023/07/10 00:24:57;;;;;;;7.13;3.03;;;;;;;21.64;100.00;100850.84;5125337;28;20122;-75
2023/07/10 00:27:28;;;;;;;6.37;3.23;;;;;;;21.71;100.00;100837.94;5125109;28;20783;-75
2023/07/10 00:29:58;;;;;;;4.28;2.47;;;;;;;21.65;100.00;100828.59;5126567;28;20282;-75
2023/07/10 00:32:28;;;;;;;5.22;2.70;;;;;;;21.78;100.00;100836.47;5130973;28;20446;-75
2023/07/10 00:34:58;;;;;;;6.67;2.80;;;;;;;21.80;100.00;100837.22;5131231;28;20118;-74
2023/07/10 00:37:29;;;;;;;5.43;3.00;;;;;;;21.45;100.00;100845.22;5122275;28;20644;-75
2023/07/10 00:39:59;;;;;;;5.23;2.90;;;;;;;21.37;100.00;100841.44;5128954;28;20369;-74
2023/07/10 00:42:29;;;;;;;5.43;2.80;;;;;;;21.46;100.00;100838.06;5123716;28;20270;-74
2023/07/10 00:45:03;;;;;;;6.47;2.70;;;;;;;21.51;100.00;100838.56;5125437;28;20410;-74
2023/07/10 00:47:37;;;;;;;4.82;2.60;;;;;;;21.39;100.00;100831.53;5124043;28;20306;-74
2023/07/10 00:50:21;;;;;;;5.53;2.70;;;;;;;21.26;100.00;100823.59;5129674;28;20081;-74
2023/07/10 00:52:52;;;;;;;7.00;3.17;;;;;;;21.13;100.00;100819.34;5122861;28;20027;-74
2023/07/10 00:55:31;;;;;;;5.95;2.85;;;;;;;21.12;100.00;100810.53;5116914;28;20046;-74
2023/07/10 00:58:15;;;;;;;7.03;2.90;;;;;;;20.95;100.00;100812.72;5119820;28;20110;-75
2023/07/10 01:01:16;;;;;;;5.68;3.28;;;;;;;20.73;100.00;100809.94;5122567;28;20410;-72
2023/07/10 01:03:49;;;;;;;7.47;3.20;;;;;;;20.84;100.00;100808.22;5120253;28;20126;-73
2023/07/10 01:06:28;;;;;;;4.70;2.97;;;;;;;20.75;100.00;100800.03;5125765;28;20041;-74
2023/07/10 01:09:02;;;;;;;8.75;3.08;;;;;;;20.65;100.00;100812.28;5121686;28;20023;-74
2023/07/10 01:11:34;;;;;;;5.95;3.00;;;;;;;20.67;100.00;100800.59;5124801;28;20034;-74
2023/07/10 01:14:08;;;;;;;5.95;3.08;;;;;;;20.63;100.00;100798.28;5125107;28;20443;-74
2023/07/10 01:16:39;;;;;;;7.75;2.72;;;;;;;20.66;100.00;100800.72;5123945;28;20031;-74
2023/07/10 01:19:19;;;;;;;6.75;3.03;;;;;;;20.65;100.00;100803.50;5124557;28;20027;-73
2023/07/10 01:21:50;;;;;;;5.60;3.00;;;;;;;20.64;100.00;100796.50;5121436;28;20027;-74
2023/07/10 01:24:21;;;;;;;6.38;3.10;;;;;;;20.78;100.00;100794.50;5120165;28;20121;-75
2023/07/10 01:26:53;;;;;;;5.82;2.72;;;;;;;20.71;100.00;100796.75;5123179;28;20478;-74
2023/07/10 01:29:23;;;;;;;5.78;2.92;;;;;;;20.77;100.00;100803.44;5125948;28;20043;-75
2023/07/10 01:31:55;;;;;;;7.20;3.30;;;;;;;20.64;100.00;100793.84;5124349;28;20035;-74
2023/07/10 01:34:51;;;;;;;7.78;3.00;;;;;;;20.63;100.00;100795.63;5130605;28;20114;-75
2023/07/10 01:37:22;;;;;;;5.65;3.47;;;;;;;20.56;100.00;100791.72;5118389;28;20058;-75
2023/07/10 01:39:54;;;;;;;6.85;3.03;;;;;;;20.47;100.00;100789.72;5107511;28;20625;-75
2023/07/10 01:42:24;;;;;;;5.97;3.00;;;;;;;20.45;100.00;100789.00;5128344;28;20031;-74
2023/07/10 01:44:54;;;;;;;6.72;2.85;;;;;;;20.43;100.00;100775.00;5123726;28;20031;-74
2023/07/10 01:47:25;;;;;;;6.23;3.03;;;;;;;20.39;100.00;100776.19;5127694;28;20394;-74
2023/07/10 01:49:57;;;;;;;7.68;2.95;;;;;;;20.46;100.00;100766.78;5124306;28;20318;-74
2023/07/10 01:52:28;;;;;;;6.05;3.10;;;;;;;20.48;100.00;100761.38;5126730;28;20369;-75
2023/07/10 01:54:58;;;;;;;7.03;3.23;;;;;;;20.47;100.00;100763.19;5124424;28;20042;-74
2023/07/10 01:57:28;;;;;;;7.35;3.35;;;;;;;20.45;100.00;100756.31;5127890;28;20980;-75
2023/07/10 01:59:58;;;;;;;7.47;3.40;;;;;;;20.42;100.00;100764.47;5139435;28;20142;-75
2023/07/10 02:02:29;;;;;;;6.55;3.15;;;;;;;20.53;100.00;100762.75;5127725;28;20273;-75
2023/07/10 02:04:59;;;;;;;8.80;3.20;;;;;;;20.49;100.00;100777.19;5126246;28;20031;-74
2023/07/10 02:07:29;;;;;;;8.90;3.50;;;;;;;20.50;100.00;100773.56;5117393;28;20027;-75
2023/07/10 02:09:59;;;;;;;9.82;3.30;;;;;;;20.31;100.00;100777.69;5127011;28;20317;-75
2023/07/10 02:12:30;;;;;;;9.43;3.50;;;;;;;20.35;100.00;100793.31;5125181;28;20069;-74
2023/07/10 02:15:00;;;;;;;8.10;3.47;;;;;;;20.26;100.00;100798.44;5128514;28;20286;-74
2023/07/10 02:17:30;;;;;;;6.90;3.10;;;;;;;20.30;100.00;100798.06;5124291;28;20664;-75
2023/07/10 02:20:01;;;;;;;7.60;3.80;;;;;;;20.30;100.00;100805.19;5113741;28;20049;-74
2023/07/10 02:22:32;;;;;;;7.33;3.30;;;;;;;20.35;100.00;100809.22;5124702;28;20301;-74
2023/07/10 02:25:02;;;;;;;8.20;3.13;;;;;;;20.40;100.00;100825.66;5115864;28;20274;-74
2023/07/10 02:27:32;;;;;;;7.70;3.45;;;;;;;20.58;100.00;100842.94;5127789;28;20054;-75
2023/07/10 02:30:03;;;;;;;9.63;3.30;;;;;;;20.75;100.00;100858.50;5124586;28;20591;-75
2023/07/10 02:32:34;;;;;;;7.78;3.47;;;;;;;20.90;100.00;100866.22;5127386;28;20290;-75
2023/07/10 02:35:04;;;;;;;5.88;3.08;;;;;;;20.95;100.00;100865.91;5128696;28;20030;-74
2023/07/10 02:37:34;;;;;;;7.07;3.08;;;;;;;21.14;100.00;100855.59;5123248;28;20438;-74
2023/07/10 02:40:06;;;;;;;5.82;3.40;;;;;;;21.14;100.00;100839.63;5125292;28;20030;-74
2023/07/10 02:42:36;;;;;;;8.55;3.60;;;;;;;21.27;100.00;100814.66;5125418;28;20474;-74
2023/07/10 02:45:07;;;;;;;6.15;3.65;;;;;;;21.22;100.00;100798.22;5126936;28;20070;-75
2023/07/10 02:47:37;;;;;;;6.15;3.40;;;;;;;21.17;100.00;100787.09;5124831;28;20029;-75
2023/07/10 02:50:11;;;;;;;7.63;3.50;;;;;;;21.18;100.00;100802.09;5127407;28;20051;-75
2023/07/10 02:52:41;;;;;;;9.10;3.90;;;;;;;21.07;100.00;100817.16;5124400;28;20278;-76
2023/07/10 02:55:11;;;;;;;9.23;3.75;;;;;;;21.02;100.00;100827.25;5127186;28;20046;-75
2023/07/10 02:57:42;;;;;;;8.37;4.20;;;;;;;20.93;100.00;100814.66;5171532;23;20053;-73
2023/07/10 03:00:13;;;;;;;12.18;4.10;;;;;;;20.88;100.00;100827.44;5175171;28;20288;-72
2023/07/10 03:02:43;;;;;;;9.10;3.75;;;;;;;20.76;100.00;100825.66;5158180;28;20033;-73
2023/07/10 03:05:13;;;;;;;6.90;3.50;;;;;;;20.88;100.00;100812.34;5160488;28;20041;-72
2023/07/10 03:07:43;;;;;;;9.38;3.75;;;;;;;20.81;100.00;100812.88;5175796;28;20312;-73
2023/07/10 03:10:14;;;;;;;8.25;4.18;;;;;;;20.77;100.00;100806.09;5159830;28;20523;-73
2023/07/10 03:12:44;;;;;;;7.40;3.88;;;;;;;20.82;100.00;100803.94;5161920;28;20046;-73
2023/07/10 03:15:15;;;;;;;10.38;3.60;;;;;;;20.80;100.00;100808.53;5160658;28;20373;-73
2023/07/10 03:17:45;;;;;;;12.07;3.70;;;;;;;20.89;100.00;100807.88;5178202;28;20369;-72
2023/07/10 03:20:15;;;;;;;9.27;3.95;;;;;;;20.73;100.00;100810.78;5178075;28;20025;-73
2023/07/10 03:22:46;;;;;;;9.88;4.50;;;;;;;20.59;100.00;100809.22;5177416;28;20018;-72
2023/07/10 03:25:16;;;;;;;10.73;3.92;;;;;;;20.56;100.00;100810.31;5176951;28;20037;-73
2023/07/10 03:27:48;;;;;;;9.00;3.90;;;;;;;20.63;100.00;100814.22;5160987;28;20022;-72
2023/07/10 03:30:19;;;;;;;6.40;3.70;;;;;;;20.85;100.00;100811.72;5176807;28;20319;-73
2023/07/10 03:32:50;;;;;;;10.38;3.78;;;;;;;20.78;100.00;100813.97;5177696;28;20018;-72
2023/07/10 03:35:20;;;;;;;6.85;3.97;;;;;;;20.73;100.00;100813.44;5178937;28;20091;-72
2023/07/10 03:37:50;;;;;;;6.33;4.00;;;;;;;20.79;100.00;100825.44;5177888;28;20014;-72
2023/07/10 03:40:20;;;;;;;10.23;4.20;;;;;;;20.65;100.00;100814.94;5176454;28;20494;-72
2023/07/10 03:42:51;;;;;;;6.63;3.60;;;;;;;20.72;100.00;100816.22;5177744;28;20335;-72
2023/07/10 03:45:21;;;;;;;7.63;3.57;;;;;;;20.76;100.00;100823.81;5177008;28;20666;-73
2023/07/10 03:47:51;;;;;;;8.23;3.97;;;;;;;20.67;100.00;100817.50;5177519;28;20359;-73
2023/07/10 03:50:22;;;;;;;7.35;4.15;;;;;;;20.63;100.00;100800.94;5177620;28;20084;-73
2023/07/10 03:52:52;;;;;;;9.18;3.80;;;;;;;20.97;100.00;100797.53;5175037;28;20084;-72
2023/07/10 03:55:22;;;;;;;6.95;4.00;;;;;;;21.03;100.00;100810.38;5176686;28;20072;-72
2023/07/10 03:57:52;;;;;;;9.75;4.10;;;;;;;20.94;100.00;100817.22;5176499;28;20040;-72
2023/07/10 04:00:23;;;;;;;9.30;4.10;;;;;;;20.87;100.00;100809.81;5176412;28;20036;-72
2023/07/10 04:02:53;;;;;;;8.75;3.80;;;;;;;20.94;100.00;100797.75;5177560;28;20026;-73
2023/07/10 04:05:23;;;;;;;11.82;3.92;;;;;;;21.14;100.00;100797.09;5175127;28;20427;-73
2023/07/10 04:07:54;;;;;;;10.10;3.88;;;;;;;21.06;100.00;100797.69;5176818;28;20033;-72
2023/07/10 04:10:24;;;;;;;10.33;4.07;;;;;;;21.09;100.00;100804.59;5166773;28;20025;-72
2023/07/10 04:12:54;;;;;;;11.10;3.60;;;;;;;21.08;100.00;100813.53;5169416;28;20280;-72
2023/07/10 04:15:24;;;;;;;8.20;4.00;;;;;;;21.18;100.00;100809.19;5176892;28;20283;-73
2023/07/10 04:17:55;;;;;;;6.87;3.23;;;;;;;21.02;100.00;100806.00;5176541;28;20710;-72
2023/07/10 04:20:25;;;;;;;11.20;4.40;;;;;;;20.96;100.00;100809.97;5176102;28;20276;-73
2023/07/10 04:22:55;;;;;;;8.40;4.43;;;;;;;20.81;100.00;100804.91;5159027;28;20326;-72
2023/07/10 04:25:26;;;;;;;8.83;3.93;;;;;;;20.85;100.00;100801.94;5177133;28;20099;-72
2023/07/10 04:27:56;;;;;;;11.80;4.00;;;;;;;21.01;100.00;100806.94;5177219;28;20285;-72
2023/07/10 04:30:26;;;;;;;11.73;4.32;;;;;;;21.02;100.00;100796.22;5176080;28;20045;-73
2023/07/10 04:32:57;;;;;;;10.97;4.17;;;;;;;20.95;100.00;100797.66;5170108;28;20079;-73
2023/07/10 04:35:27;;;;;;;6.43;3.60;;;;;;;21.04;100.00;100796.13;5175096;28;20286;-73
2023/07/10 04:37:57;;;;;;;13.53;4.33;;;;;;;20.91;100.00;100801.47;5174708;28;20072;-72
2023/07/10 04:40:28;;;;;;;9.27;4.07;;;;;;;20.85;100.00;100801.94;5175680;28;20273;-72
2023/07/10 04:42:58;;;;;;;6.63;4.13;;;;;;;21.04;100.00;100794.28;5175218;28;20268;-73
2023/07/10 04:45:28;;;;;;;11.93;3.70;;;;;;;21.04;100.00;100799.59;5156822;28;20109;-71
2023/07/10 04:47:59;;;;;;;7.88;3.80;;;;;;;21.02;100.00;100804.19;5159590;28;20303;-73
2023/07/10 04:50:29;;;;;;;13.23;3.67;;;;;;;21.13;100.00;100798.94;5175749;28;20112;-73
2023/07/10 04:52:59;;;;;;;10.52;4.10;;;;;;;21.13;100.00;100806.03;5171311;28;20088;-73
2023/07/10 04:55:29;;;;;;;9.67;3.60;;;;;;;21.31;100.00;100816.16;5176637;28;20221;-73
2023/07/10 04:58:00;;;;;;;10.23;4.27;;;;;;;21.22;100.00;100813.34;5172522;28;20885;-73
2023/07/10 05:00:31;;;;;;;10.85;4.15;;;;;;;21.31;100.00;100813.50;5157279;28;20273;-73
2023/07/10 05:03:03;;;;;;;19.65;4.05;;;;;;;21.26;100.00;100814.81;5157474;28;20266;-73
2023/07/10 05:05:33;;;;;;;19.25;4.00;;;;;;;21.59;100.00;100805.06;5159351;28;20526;-73
2023/07/10 05:08:04;;;;;;;13.80;4.70;;;;;;;21.89;100.00;100817.88;5174766;28;20061;-72
2023/07/10 05:10:34;;;;;;;9.02;3.40;;;;;;;22.38;100.00;100816.56;5174502;28;20288;-72
2023/07/10 05:13:04;;;;;;;10.55;3.75;;;;;;;22.99;100.00;100824.75;5172880;28;20495;-73
2023/07/10 05:15:35;;;;;;;7.95;3.60;;;;;;;23.37;100.00;100810.94;5159838;28;20236;-73
2023/07/10 05:18:05;;;;;;;8.47;3.23;;;;;;;24.77;100.00;100810.91;5160355;28;20030;-73
2023/07/10 05:20:35;;;;;;;6.25;3.10;;;;;;;26.48;95.03;100816.00;5175845;28;20632;-73
2023/07/10 05:23:06;;;;;;;10.07;4.17;;;;;;;26.90;87.77;100824.19;5175728;28;20484;-73
2023/07/10 05:25:37;;;;;;;5.35;2.95;;;;;;;26.83;87.12;100816.91;5176559;28;20279;-72
2023/07/10 05:28:07;;;;;;;8.35;2.78;;;;;;;27.51;88.51;100816.22;5175553;28;21254;-71
2023/07/10 05:30:37;;;;;;;11.45;3.30;;;;;;;28.16;82.34;100824.56;5173104;28;20552;-73
2023/07/10 05:33:08;;;;;;;7.63;3.35;;;;;;;28.13;79.41;100819.50;5173948;28;20065;-73
2023/07/10 05:35:57;;;;;;;8.40;2.63;;;;;;;28.00;81.09;100820.97;5156957;28;20381;-73
2023/07/10 05:38:30;;;;;;;4.35;2.72;;;;;;;28.19;81.82;100829.66;5155439;28;20096;-73
2023/07/10 05:41:02;;;;;;;5.97;2.70;;;;;;;27.26;84.53;100838.50;5173566;28;20033;-73
2023/07/10 05:43:33;;;;;;;9.15;3.00;;;;;;;27.84;82.54;100837.84;5174600;28;20037;-73
2023/07/10 05:46:04;;;;;;;6.82;3.13;;;;;;;27.25;83.91;100834.97;5157311;28;20029;-71
2023/07/10 05:48:34;;;;;;;6.88;3.10;;;;;;;27.26;85.49;100838.50;5157188;28;20028;-73
2023/07/10 05:51:05;;;;;;;7.33;2.60;;;;;;;27.00;86.75;100830.34;5176037;28;20045;-72
2023/07/10 05:53:35;;;;;;;7.43;3.00;;;;;;;26.83;88.15;100833.88;5175972;28;20830;-72
2023/07/10 05:56:06;;;;;;;7.13;3.30;;;;;;;26.43;90.08;100840.56;5176177;28;20084;-72
2023/07/10 05:58:38;;;;;;;5.25;2.78;;;;;;;26.51;91.42;100843.34;5178468;28;20075;-72
2023/07/10 06:01:09;;;;;;;10.13;3.25;;;;;;;25.72;94.80;100845.69;5183115;28;20519;-71
2023/07/10 06:03:40;;;;;;;10.60;3.20;;;;;;;25.30;97.68;100841.66;5178800;28;20030;-72
2023/07/10 06:06:10;;;;;;;9.02;2.92;;;;;;;25.28;98.42;100843.66;5176000;28;20044;-72
2023/07/10 06:08:40;;;;;;;7.18;3.03;;;;;;;24.60;100.00;100837.47;5171965;28;20500;-72
2023/07/10 06:11:11;;;;;;;6.65;3.47;;;;;;;24.33;100.00;100851.41;5179106;28;20369;-72
2023/07/10 06:13:41;;;;;;;7.28;3.30;;;;;;;24.45;100.00;100857.50;5184069;28;20029;-72
2023/07/10 06:16:12;;;;;;;7.23;3.83;;;;;;;24.28;100.00;100861.66;5184237;28;20029;-72
2023/07/10 06:18:42;;;;;;;9.27;4.30;;;;;;;24.13;100.00;100868.34;5166072;28;20267;-72
2023/07/10 06:21:12;;;;;;;9.75;4.43;;;;;;;23.81;100.00;100875.56;5179277;28;20523;-71
2023/07/10 06:23:43;;;;;;;7.43;4.68;;;;;;;23.55;100.00;100871.59;5179214;28;20026;-72
2023/07/10 06:26:13;;;;;;;10.70;4.83;;;;;;;23.39;100.00;100887.19;5171843;28;20025;-72
2023/07/10 06:28:43;;;;;;;9.75;4.30;;;;;;;23.16;100.00;100896.25;5186374;28;20303;-72
2023/07/10 06:31:14;;;;;;;9.60;4.43;;;;;;;22.97;100.00;100896.03;5179577;28;20033;-72
2023/07/10 06:33:44;;;;;;;11.10;4.80;;;;;;;22.94;100.00;100890.09;5179387;28;20277;-71
2023/07/10 06:36:14;;;;;;;11.68;4.57;;;;;;;22.72;100.00;100884.81;5160960;28;20491;-71
2023/07/10 06:38:45;;;;;;;8.13;4.75;;;;;;;22.56;100.00;100884.34;5167366;28;20018;-72
2023/07/10 06:41:15;;;;;;;7.10;4.38;;;;;;;22.67;100.00;100885.19;5176100;28;20021;-72
2023/07/10 06:43:45;;;;;;;13.07;4.82;;;;;;;22.65;100.00;100888.09;5183971;28;20022;-72
2023/07/10 06:46:15;;;;;;;8.33;5.00;;;;;;;22.75;100.00;100882.75;5162195;28;20021;-71
2023/07/10 06:48:46;;;;;;;8.85;5.10;;;;;;;22.60;100.00;100895.63;5167602;28;20288;-71
2023/07/10 06:51:16;;;;;;;9.38;5.38;;;;;;;22.48;100.00;100896.59;5159789;28;20399;-72
2023/07/10 06:53:46;;;;;;;14.23;5.43;;;;;;;22.51;100.00;100901.66;5185468;28;20032;-72
2023/07/10 06:56:17;;;;;;;9.90;5.20;;;;;;;22.34;100.00;100888.81;5167492;28;20346;-72
2023/07/10 06:58:50;;;;;;;9.32;5.15;;;;;;;22.39;100.00;100898.16;5165341;28;20021;-72
2023/07/10 07:01:20;;;;;;;9.57;5.18;;;;;;;22.51;100.00;100896.34;5184184;28;20040;-70
2023/07/10 07:03:51;;;;;;;9.35;5.10;;;;;;;22.55;100.00;100900.44;5165503;28;20025;-71
2023/07/10 07:06:21;;;;;;;8.68;5.05;;;;;;;22.40;100.00;100904.34;5185377;28;20037;-71
2023/07/10 07:08:52;;;;;;;11.02;5.47;;;;;;;22.42;100.00;100911.25;5160537;28;20041;-71
2023/07/10 07:11:22;;;;;;;14.43;6.10;;;;;;;22.38;100.00;100915.13;5182265;28;20026;-71
2023/07/10 07:13:53;;;;;;;9.80;5.45;;;;;;;22.34;100.00;100913.63;5183856;28;20396;-72
2023/07/10 07:16:23;;;;;;;9.23;5.30;;;;;;;22.38;100.00;100911.56;5160512;28;20033;-71
2023/07/10 07:18:53;;;;;;;10.30;5.50;;;;;;;22.40;100.00;100918.50;5174927;28;20030;-72
2023/07/10 07:21:24;;;;;;;12.55;6.50;;;;;;;22.40;100.00;100926.50;5171640;28;20029;-71
2023/07/10 07:23:54;;;;;;;11.38;6.82;;;;;;;22.35;100.00;100919.78;5184154;28;20744;-72
2023/07/10 07:26:25;;;;;;;11.50;5.70;;;;;;;22.23;100.00;100923.44;5180796;28;20442;-71
2023/07/10 07:28:55;;;;;;;11.13;5.60;;;;;;;21.99;100.00;100931.50;5180551;28;20291;-72
2023/07/10 07:31:25;;;;;;;10.65;5.35;;;;;;;22.03;100.00;100938.28;5171494;28;20017;-71
2023/07/10 07:33:55;;;;;;;12.10;7.00;;;;;;;21.96;100.00;100936.22;5177898;28;20029;-71
2023/07/10 07:36:26;;;;;;;11.52;7.35;;;;;;;21.98;100.00;100940.47;5181055;28;20693;-71
2023/07/10 07:38:56;;;;;;;12.40;7.30;;;;;;;22.00;100.00;100948.31;5176904;28;20072;-72
2023/07/10 07:41:26;;;;;;;12.80;6.88;;;;;;;21.83;100.00;100951.41;5180908;28;20048;-71
2023/07/10 07:43:57;;;;;;;11.02;6.78;;;;;;;21.89;100.00;100954.47;5183867;28;20473;-72
2023/07/10 07:46:29;;;;;;;13.80;7.57;;;;;;;21.64;100.00;100951.09;5177147;28;20034;-71
2023/07/10 07:48:59;;;;;;;13.30;8.00;;;;;;;21.79;100.00;100944.63;5180235;28;20391;-72
2023/07/10 07:51:30;;;;;;;20.27;10.95;;;;;;;21.76;100.00;100947.53;5164687;28;20092;-72
2023/07/10 07:54:19;;;;;;;16.35;10.30;;;;;;;21.81;100.00;100950.69;5159385;28;20064;-72
2023/07/10 07:56:49;;;;;;;11.30;7.32;;;;;;;21.75;100.00;100948.50;5185616;28;20573;-70
2023/07/10 07:59:21;;;;;;;10.18;6.68;;;;;;;21.85;100.00;100941.50;5180302;28;20022;-71
2023/07/10 08:01:52;;;;;;;13.93;8.10;;;;;;;21.89;100.00;100950.97;5165387;28;20395;-72
2023/07/10 08:04:22;;;;;;;11.30;7.13;;;;;;;21.83;100.00;100951.41;5176121;28;20025;-72
2023/07/10 08:06:53;;;;;;;14.90;9.30;;;;;;;21.90;100.00;100952.66;5169736;28;20488;-71
2023/07/10 08:09:23;;;;;;;16.17;9.45;;;;;;;21.90;100.00;100952.66;5174606;28;20037;-72
2023/07/10 08:11:53;;;;;;;14.98;9.05;;;;;;;21.85;100.00;100957.47;5163469;28;20045;-71
2023/07/10 08:14:24;;;;;;;13.30;8.10;;;;;;;21.89;100.00;100951.81;5183868;28;20034;-72
2023/07/10 08:16:54;;;;;;;11.85;7.32;;;;;;;22.24;100.00;100952.59;5180776;28;20060;-72
2023/07/10 08:19:24;;;;;;;12.23;7.20;;;;;;;22.17;100.00;100955.84;5181052;28;20100;-72
2023/07/10 08:21:57;;;;;;;11.63;6.60;;;;;;;22.30;100.00;100961.94;5148873;28;20092;-71
2023/07/10 08:24:27;;;;;;;11.63;7.30;;;;;;;22.37;100.00;100963.16;5165354;28;20030;-71
2023/07/10 08:26:57;;;;;;;12.93;7.10;;;;;;;22.48;100.00;100966.72;5165491;28;20018;-71
2023/07/10 08:29:30;;;;;;;13.30;7.65;;;;;;;22.46;100.00;100962.47;5164073;28;20459;-72
2023/07/10 08:32:01;;;;;;;15.27;8.52;;;;;;;22.38;100.00;100970.16;5163532;28;20025;-72
2023/07/10 08:34:31;;;;;;;12.95;7.90;;;;;;;22.44;100.00;100975.91;5179846;28;20026;-71
2023/07/10 08:37:02;;;;;;;14.32;8.48;;;;;;;22.43;100.00;100982.19;5178477;28;20597;-72
2023/07/10 08:39:32;;;;;;;13.65;8.32;;;;;;;22.53;100.00;100985.00;5179511;28;20384;-72
2023/07/10 08:42:17;;;;;;;12.38;8.18;;;;;;;22.50;100.00;100980.78;5172675;28;20564;-72
2023/07/10 08:44:49;;;;;;;13.57;8.98;;;;;;;22.45;100.00;100982.09;5178190;28;20060;-72
2023/07/10 08:47:31;;;;;;;16.08;8.80;;;;;;;22.44;100.00;100985.72;5175893;28;20026;-72
2023/07/10 08:50:15;;;;;;;12.50;8.20;;;;;;;22.11;100.00;100983.81;5181529;28;20033;-72
2023/07/10 08:52:59;;;;;;;16.27;9.10;;;;;;;21.87;100.00;100976.81;5162134;28;20029;-72
2023/07/10 08:55:35;;;;;;;13.77;8.80;;;;;;;22.09;100.00;100984.91;5180533;28;20025;-72
2023/07/10 08:58:31;;;;;;;15.85;9.57;;;;;;;22.06;100.00;100987.81;5192650;23;20109;-75
2023/07/10 09:01:08;;;;;;;12.32;8.00;;;;;;;22.18;100.00;100979.72;5155504;28;20424;-75
2023/07/10 09:03:47;;;;;;;13.73;7.90;;;;;;;22.21;100.00;100978.63;5154491;28;20121;-76
2023/07/10 09:06:49;;;;;;;12.15;7.22;;;;;;;22.08;100.00;100980.53;5158106;28;20030;-76
2023/07/10 09:09:33;;;;;;;9.88;6.80;;;;;;;22.14;100.00;100978.28;5166200;28;20018;-76
2023/07/10 09:12:09;;;;;;;12.23;7.20;;;;;;;22.29;100.00;100976.22;5154643;28;20394;-74
2023/07/10 09:14:40;;;;;;;12.25;7.10;;;;;;;22.29;100.00;100973.56;5173675;28;20036;-75
2023/07/10 09:17:39;;;;;;;10.68;6.47;;;;;;;22.25;100.00;100972.94;5173213;28;20025;-75
2023/07/10 09:20:11;;;;;;;12.23;6.90;;;;;;;22.07;100.00;100986.84;5175338;28;20081;-75
2023/07/10 09:23:11;;;;;;;9.95;7.05;;;;;;;22.19;100.00;100975.22;5168607;28;20049;-75
2023/07/10 09:25:41;;;;;;;10.32;6.28;;;;;;;21.91;100.00;100983.66;5153289;28;20038;-75
2023/07/10 09:28:11;;;;;;;12.50;7.07;;;;;;;22.01;100.00;100992.59;5169842;28;20040;-75
2023/07/10 09:31:00;;;;;;;10.17;6.63;;;;;;;22.13;100.00;100989.88;5168320;28;20285;-74
2023/07/10 09:34:00;;;;;;;10.77;6.82;;;;;;;22.14;100.00;100998.72;5170540;28;20273;-75
2023/07/10 09:36:31;;;;;;;11.55;6.75;;;;;;;22.16;100.00;101000.31;5169346;28;20042;-75
2023/07/10 09:39:03;;;;;;;9.93;6.90;;;;;;;22.31;100.00;101000.94;5171671;28;20399;-75
2023/07/10 09:41:37;;;;;;;10.65;7.10;;;;;;;22.15;100.00;101011.06;5170868;28;20029;-75
2023/07/10 09:44:22;;;;;;;9.25;6.50;;;;;;;22.25;100.00;101004.06;5171652;28;21375;-75
2023/07/10 09:47:01;;;;;;;8.43;5.93;;;;;;;22.29;100.00;101009.03;5172517;28;20397;-75
2023/07/10 09:49:36;;;;;;;10.90;6.38;;;;;;;22.42;100.00;101011.66;5174041;28;20334;-75
2023/07/10 09:52:16;;;;;;;9.27;5.70;;;;;;;22.45;100.00;101014.91;5174242;28;20192;-75
2023/07/10 09:54:47;;;;;;;8.68;5.65;;;;;;;22.36;100.00;101018.25;5173016;28;20037;-75
2023/07/10 09:57:18;;;;;;;9.95;6.00;;;;;;;22.46;100.00;101021.09;5173640;28;20088;-75
2023/07/10 09:59:53;;;;;;;10.43;5.50;;;;;;;22.63;100.00;101028.63;5172282;28;20127;-73
2023/07/10 10:02:26;;;;;;;;;;;;;;;22.44;100.00;101028.34;5176263;28;20507;-75
2023/07/10 10:05:12;;;;;;;8.95;5.30;;;;;;;22.53;100.00;101035.63;5166615;28;20310;-75
2023/07/10 10:07:45;;;;;;;11.50;6.50;;;;;;;22.55;100.00;101023.91;5170787;28;20026;-74
2023/07/10 10:10:27;;;;;;;9.93;5.97;;;;;;;22.45;100.00;101030.06;5177987;28;20285;-75
2023/07/10 10:13:22;;;;;;;10.65;6.65;;;;;;;22.30;100.00;101031.19;5175594;28;20574;-75
2023/07/10 10:16:17;;;;;;;9.00;6.50;;;;;;;22.31;100.00;101039.09;5177208;28;20056;-75
2023/07/10 10:19:17;;;;;;;9.82;6.80;;;;;;;22.33;100.00;101037.16;5173006;28;20041;-75
2023/07/10 10:21:47;;;;;;;12.73;6.38;;;;;;;22.37;100.00;101043.06;5178039;28;20079;-74
2023/07/10 10:24:18;;;;;;;8.77;6.05;;;;;;;22.45;100.00;101035.38;5172429;28;20026;-75
2023/07/10 10:27:25;;;;;;;12.70;6.00;;;;;;;22.73;100.00;101036.66;5176875;28;20021;-73
2023/07/10 10:30:24;;;;;;;6.85;4.82;;;;;;;22.85;100.00;101035.66;5174181;28;20088;-74
2023/07/10 10:33:31;;;;;;;8.38;4.68;;;;;;;22.97;100.00;101050.69;5168584;28;20137;-75
2023/07/10 10:36:31;;;;;;;6.72;4.13;;;;;;;22.98;100.00;101048.91;5174717;28;20018;-75
2023/07/10 10:39:21;;;;;;;8.05;4.15;;;;;;;23.43;100.00;101048.75;5165853;28;20030;-75
2023/07/10 10:41:59;;;;;;;8.43;4.85;;;;;;;23.69;100.00;101060.81;5171000;28;20476;-75
2023/07/10 10:44:47;;;;;;;6.03;4.22;;;;;;;23.81;100.00;101058.94;5176893;28;20088;-75
2023/07/10 10:47:45;;;;;;;7.43;4.10;;;;;;;24.07;100.00;101058.53;5176734;28;20068;-75
2023/07/10 10:50:29;;;;;;;7.90;3.88;;;;;;;23.75;100.00;101056.81;5176101;28;20029;-75
2023/07/10 10:53:19;;;;;;;6.93;3.80;;;;;;;24.19;100.00;101054.00;5175385;28;20506;-75
2023/07/10 10:56:11;;;;;;;6.47;4.10;;;;;;;24.45;99.03;101048.13;5171613;28;20037;-75
2023/07/10 10:59:09;;;;;;;7.07;4.15;;;;;;;24.35;98.57;101049.88;5169717;28;20033;-73
2023/07/10 11:01:57;;;;;;;6.35;3.88;;;;;;;24.33;99.14;101057.19;5175083;28;20105;-75
2023/07/10 11:04:36;;;;;;;6.13;3.50;;;;;;;24.17;98.50;101051.44;5170251;28;20640;-75
2023/07/10 11:07:13;;;;;;;7.55;3.85;;;;;;;24.02;99.67;101052.72;5160935;28;20088;-75
2023/07/10 11:09:52;;;;;;;8.55;3.92;;;;;;;24.40;98.87;101047.66;5165051;28;20088;-73
2023/07/10 11:12:25;;;;;;;5.57;3.80;;;;;;;24.80;97.65;101043.31;5162566;28;20073;-75
2023/07/10 11:15:01;;;;;;;6.35;3.40;;;;;;;25.35;96.35;101049.03;5166540;28;20034;-75
2023/07/10 11:17:31;;;;;;;;;;;;;;;25.39;92.00;101052.28;5168685;28;20022;-76
2023/07/10 11:20:02;;;;;;;7.90;3.60;;;;;;;25.45;90.43;101041.88;5169633;28;19924;-75
2023/07/10 11:22:35;;;;;;;8.07;3.55;;;;;;;25.68;88.90;101039.81;5163484;28;20026;-75
2023/07/10 11:25:29;;;;;;;6.88;3.67;;;;;;;25.60;89.45;101036.97;5164294;28;20145;-75
2023/07/10 11:28:18;;;;;;;5.55;3.10;;;;;;;25.44;90.53;101037.50;5162852;28;20104;-75
2023/07/10 11:31:11;;;;;;;7.90;3.17;;;;;;;25.62;90.01;101040.34;5163511;28;20117;-73
2023/07/10 11:33:42;;;;;;;5.68;3.28;;;;;;;25.42;89.58;101039.50;5162257;28;20148;-75
2023/07/10 11:36:16;;;;;;;6.45;3.25;;;;;;;25.50;89.60;101036.13;5164600;28;20034;-75
2023/07/10 11:39:11;;;;;;;6.90;3.38;;;;;;;25.36;90.81;101033.84;5164373;28;20022;-73
2023/07/10 11:41:44;;;;;;;8.13;3.47;;;;;;;25.58;90.55;101039.81;5169391;28;20088;-75
2023/07/10 11:44:20;;;;;;;5.75;3.30;;;;;;;25.44;89.43;101034.84;5167614;28;20030;-75
2023/07/10 11:46:57;;;;;;;5.95;2.90;;;;;;;25.78;89.87;101040.66;5154042;28;20072;-74
2023/07/10 11:49:45;;;;;;;6.85;2.80;;;;;;;26.07;88.11;101046.91;5171559;28;21202;-75